METAR Data
IDs: Format: Raw Decoded Include TAF

Data at: 1235 UTC 20 Oct 2021

METAR for:KPEZ (Pleasanton Muni, TX, US)
Text:KPEZ 201215Z AUTO 00000KT 10SM CLR 19/18 A3007 RMK AO2 T01900184
Temperature: 19.0°C ( 66°F)
Dewpoint: 18.4°C ( 65°F) [RH = 96%]
Pressure (altimeter):30.07 inches Hg (1018.4 mb)
Winds:calm
Visibility:10 or more sm (16+ km)
Ceiling:at least 12,000 feet AGL
Clouds:sky clear below 12,000 feet AGL
QC Flag:automated observation with no human augmentation